Time;durP1;ratioP1;P1;durP2;ratioP2;P2;SDS_P1;SDS_P2;PMS_P1;PMS_P2;Temp;Humidity;BMP_temperature;BMP_pressure;BME280_temperature;BME280_humidity;BME280_pressure;Samples;Min_cycle;Max_cycle;Signal;HPM_P1;HPM_P2
2022/09/21 00:01:20;;;;;;;1999.90;999.90;;;10.60;99.90;;;;;;5034654;28;20943;-70
2022/09/21 00:03:46;;;;;;;1999.90;999.90;;;10.60;99.90;;;;;;5034380;28;20211;-68
2022/09/21 00:06:15;;;;;;;1999.90;999.90;;;10.50;99.90;;;;;;5034386;28;20406;-68
2022/09/21 00:08:42;;;;;;;1999.90;999.90;;;10.50;99.90;;;;;;5034345;28;20438;-68
2022/09/21 00:11:15;;;;;;;1999.90;999.90;;;10.50;99.90;;;;;;5034417;28;20856;-68
2022/09/21 00:13:42;;;;;;;1999.90;999.90;;;10.50;99.90;;;;;;5034337;28;20513;-68
2022/09/21 00:16:08;;;;;;;1999.90;999.90;;;10.50;99.90;;;;;;5034351;28;20415;-68
2022/09/21 00:18:35;;;;;;;1999.90;999.90;;;10.40;99.90;;;;;;5034193;28;20407;-68
2022/09/21 00:21:05;;;;;;;1999.90;999.90;;;10.50;99.90;;;;;;5034158;28;20513;-68
2022/09/21 00:23:30;;;;;;;1999.90;999.90;;;10.60;99.90;;;;;;5034009;28;20532;-68
2022/09/21 00:26:09;;;;;;;1999.90;999.90;;;10.50;99.90;;;;;;5034244;28;20411;-68
2022/09/21 00:28:36;;;;;;;1999.90;999.90;;;10.50;99.90;;;;;;5033839;28;20170;-68
2022/09/21 00:31:07;;;;;;;1999.90;999.90;;;10.50;99.90;;;;;;5033841;28;20462;-69
2022/09/21 00:33:32;;;;;;;1999.90;999.90;;;10.50;99.90;;;;;;5034151;28;20807;-68
2022/09/21 00:36:07;;;;;;;1999.90;999.90;;;10.50;99.90;;;;;;5033963;28;20475;-68
2022/09/21 00:38:33;;;;;;;1999.90;999.90;;;10.40;99.90;;;;;;5034030;28;20408;-68
2022/09/21 00:40:59;;;;;;;1999.90;999.90;;;10.30;99.90;;;;;;5033780;28;20446;-68
2022/09/21 00:43:25;;;;;;;1999.90;999.90;;;10.30;99.90;;;;;;5032884;28;20462;-68
2022/09/21 00:46:00;;;;;;;1999.90;999.90;;;10.20;99.90;;;;;;5033420;28;20653;-68
2022/09/21 00:48:26;;;;;;;1999.90;999.90;;;10.20;99.90;;;;;;5033516;28;20808;-68
2022/09/21 00:50:55;;;;;;;1999.90;999.90;;;10.20;99.90;;;;;;5033559;28;20458;-68
2022/09/21 00:53:21;;;;;;;1999.90;999.90;;;10.20;99.90;;;;;;5033491;28;20509;-68
2022/09/21 00:55:54;;;;;;;1999.90;999.90;;;10.10;99.90;;;;;;5033410;28;20453;-68
2022/09/21 00:58:37;;;;;;;1999.90;999.90;;;10.20;99.90;;;;;;5033269;28;20657;-70
2022/09/21 01:01:03;;;;;;;1999.90;999.90;;;10.10;99.90;;;;;;5033679;28;21021;-68
2022/09/21 01:03:30;;;;;;;1999.90;999.90;;;9.90;99.90;;;;;;5033678;28;20489;-68
2022/09/21 01:05:55;;;;;;;1999.90;999.90;;;9.80;99.90;;;;;;5033393;28;20170;-68
2022/09/21 01:08:24;;;;;;;1999.90;999.90;;;9.80;99.90;;;;;;5033544;28;20403;-68
2022/09/21 01:10:57;;;;;;;1999.90;999.90;;;9.80;99.90;;;;;;5033168;28;20287;-68
2022/09/21 01:13:43;;;;;;;1999.90;999.90;;;9.90;99.90;;;;;;5033482;28;20394;-68
2022/09/21 01:16:27;;;;;;;1999.90;999.90;;;9.90;99.90;;;;;;5032360;28;20398;-69
2022/09/21 01:18:58;;;;;;;1999.90;999.90;;;9.90;99.90;;;;;;5032039;28;20416;-68
2022/09/21 01:21:39;;;;;;;1999.90;999.90;;;9.90;99.90;;;;;;5032204;28;20843;-70
2022/09/21 01:24:30;;;;;;;1999.90;999.90;;;9.70;99.90;;;;;;5032135;28;20445;-69
2022/09/21 01:27:03;;;;;;;1999.90;999.90;;;9.70;99.90;;;;;;5031855;28;20402;-68
2022/09/21 01:29:51;;;;;;;1999.90;999.90;;;9.60;99.90;;;;;;5032061;28;20448;-69
2022/09/21 01:32:39;;;;;;;1999.90;999.90;;;9.60;99.90;;;;;;5032230;28;20399;-69
2022/09/21 01:35:32;;;;;;;1999.90;999.90;;;9.40;99.90;;;;;;5031973;28;20450;-68
2022/09/21 01:38:04;;;;;;;1999.90;999.90;;;9.50;99.90;;;;;;5031702;28;20401;-68
2022/09/21 01:40:33;;;;;;;1999.90;999.90;;;9.50;99.90;;;;;;5031732;28;20979;-68
2022/09/21 01:43:01;;;;;;;1999.90;999.90;;;9.40;99.90;;;;;;5031954;28;21214;-68
2022/09/21 01:45:32;;;;;;;1999.90;999.90;;;9.40;99.90;;;;;;5031897;28;20741;-68
2022/09/21 01:48:00;;;;;;;1999.90;999.90;;;9.40;99.90;;;;;;5031570;28;20442;-69
2022/09/21 01:50:31;;;;;;;1999.90;999.90;;;9.50;99.90;;;;;;5031757;28;20432;-69
2022/09/21 01:53:06;;;;;;;1999.90;999.90;;;9.60;99.90;;;;;;5031826;28;21201;-69
2022/09/21 01:55:41;;;;;;;1999.90;999.90;;;9.60;99.90;;;;;;5033500;28;20876;-68
2022/09/21 01:58:49;;;;;;;1999.90;999.90;;;9.70;99.90;;;;;;5035821;28;20424;-68
2022/09/21 02:01:19;;;;;;;1999.90;999.90;;;9.70;99.90;;;;;;4974426;28;20466;-68
2022/09/21 02:03:56;;;;;;;1999.90;999.90;;;9.60;99.90;;;;;;5028018;28;20619;-68
2022/09/21 02:06:25;;;;;;;1999.90;999.90;;;9.60;99.90;;;;;;5035627;28;20401;-68
2022/09/21 02:08:52;;;;;;;1999.90;999.90;;;9.40;99.90;;;;;;5035513;28;20402;-68
2022/09/21 02:11:17;;;;;;;1999.90;999.90;;;9.50;99.90;;;;;;5035534;28;20429;-68
2022/09/21 02:13:47;;;;;;;1999.90;999.90;;;9.30;99.90;;;;;;5035470;28;20734;-68
2022/09/21 02:16:39;;;;;;;1999.90;999.90;;;9.40;99.90;;;;;;5035464;28;20175;-68
2022/09/21 02:19:20;;;;;;;1999.90;999.90;;;9.30;99.90;;;;;;5035532;28;20546;-69
2022/09/21 02:22:08;;;;;;;1999.90;999.90;;;9.20;99.90;;;;;;5035280;28;20454;-69
2022/09/21 02:25:05;;;;;;;1999.90;999.90;;;9.00;99.90;;;;;;5035269;28;20483;-68
2022/09/21 02:27:42;;;;;;;1999.90;999.90;;;9.00;99.90;;;;;;5035023;28;20863;-68
2022/09/21 02:30:28;;;;;;;1999.90;999.90;;;9.10;99.90;;;;;;5035096;28;20784;-69
2022/09/21 02:33:19;;;;;;;1999.90;999.90;;;9.10;99.90;;;;;;5035208;28;20479;-68
2022/09/21 02:35:51;;;;;;;1999.90;999.90;;;9.10;99.90;;;;;;5035187;28;20450;-68
2022/09/21 02:38:30;;;;;;;1999.90;999.90;;;9.00;99.90;;;;;;5034871;28;20420;-68
2022/09/21 02:41:05;;;;;;;1999.90;999.90;;;9.00;99.90;;;;;;5034844;28;20495;-68
2022/09/21 02:43:30;;;;;;;1999.90;999.90;;;8.90;99.90;;;;;;5034995;28;20550;-68
2022/09/21 02:46:04;;;;;;;1999.90;999.90;;;8.80;99.90;;;;;;5034806;28;20495;-68
2022/09/21 02:48:38;;;;;;;1999.90;999.90;;;8.70;99.90;;;;;;5034737;28;20181;-68
2022/09/21 02:51:10;;;;;;;1999.90;999.90;;;8.70;99.90;;;;;;5034661;28;20491;-68
2022/09/21 02:53:38;;;;;;;1999.90;999.90;;;8.70;99.90;;;;;;5034780;28;20410;-68
2022/09/21 02:56:06;;;;;;;1999.90;999.90;;;8.70;99.90;;;;;;5034737;28;20408;-69
2022/09/21 02:58:37;;;;;;;1999.90;999.90;;;8.70;99.90;;;;;;5034788;28;20915;-68
2022/09/21 03:01:06;;;;;;;1999.90;999.90;;;8.70;99.90;;;;;;5034583;28;20527;-68
2022/09/21 03:03:32;;;;;;;1999.90;999.90;;;8.80;99.90;;;;;;5034485;28;20459;-68
2022/09/21 03:05:58;;;;;;;1999.90;999.90;;;8.80;99.90;;;;;;5034436;28;20408;-68
2022/09/21 03:08:24;;;;;;;1999.90;999.90;;;8.70;99.90;;;;;;5033661;28;20197;-68
2022/09/21 03:10:50;;;;;;;1999.90;999.90;;;8.60;99.90;;;;;;5034300;28;20424;-68
2022/09/21 03:13:17;;;;;;;1999.90;999.90;;;8.60;99.90;;;;;;5034389;28;20410;-69
2022/09/21 03:15:44;;;;;;;1999.90;999.90;;;8.60;99.90;;;;;;5034349;28;20457;-68
2022/09/21 03:18:10;;;;;;;1999.90;999.90;;;8.60;99.90;;;;;;5034020;28;20423;-69
2022/09/21 03:20:37;;;;;;;1999.90;999.90;;;8.60;99.90;;;;;;5034246;28;20766;-68
2022/09/21 03:23:03;;;;;;;1999.90;999.90;;;8.60;99.90;;;;;;5034212;28;20452;-69
2022/09/21 03:25:29;;;;;;;1999.90;999.90;;;8.60;99.90;;;;;;5034198;28;20481;-69
2022/09/21 03:27:56;;;;;;;1999.90;999.90;;;8.60;99.90;;;;;;5033971;28;20400;-68
2022/09/21 03:30:23;;;;;;;1999.90;999.90;;;8.60;99.90;;;;;;5034049;28;20514;-68
2022/09/21 03:32:52;;;;;;;1999.90;999.90;;;8.50;99.90;;;;;;5033963;28;20408;-69
2022/09/21 03:35:20;;;;;;;1999.90;999.90;;;8.50;99.90;;;;;;5034045;28;20490;-68
2022/09/21 03:37:46;;;;;;;1999.90;999.90;;;8.40;99.90;;;;;;5033837;28;20435;-68
2022/09/21 03:40:12;;;;;;;1999.90;999.90;;;8.20;99.90;;;;;;5075085;22;20502;-68
2022/09/21 03:42:39;;;;;;;1999.90;999.90;;;8.20;99.90;;;;;;5053471;28;20471;-70
2022/09/21 03:45:06;;;;;;;1999.90;999.90;;;8.20;99.90;;;;;;5053753;28;20412;-69
2022/09/21 03:47:31;;;;;;;1999.90;999.90;;;8.20;99.90;;;;;;5053408;28;20893;-70
2022/09/21 03:49:57;;;;;;;1999.90;999.90;;;8.30;99.90;;;;;;5053683;28;20412;-69
2022/09/21 03:52:23;;;;;;;1999.90;999.90;;;8.30;99.90;;;;;;5053589;28;20781;-69
2022/09/21 03:54:48;;;;;;;1999.90;999.90;;;8.20;99.90;;;;;;5053596;28;20448;-69
2022/09/21 03:57:14;;;;;;;1999.90;999.90;;;8.10;99.90;;;;;;5053327;28;20180;-70
2022/09/21 03:59:40;;;;;;;1999.90;999.90;;;8.10;99.90;;;;;;5053486;28;20666;-68
2022/09/21 04:02:06;;;;;;;1999.90;999.90;;;8.10;99.90;;;;;;5053362;28;20192;-68
2022/09/21 04:04:32;;;;;;;1999.90;999.90;;;8.00;99.90;;;;;;5053388;28;20458;-70
2022/09/21 04:06:58;;;;;;;1999.90;999.90;;;7.90;99.90;;;;;;5053099;28;20411;-69
2022/09/21 04:09:24;;;;;;;1999.90;999.90;;;7.90;99.90;;;;;;5053371;28;20635;-70
2022/09/21 04:11:52;;;;;;;1999.90;999.90;;;7.80;99.90;;;;;;5053215;28;20500;-69
2022/09/21 04:14:19;;;;;;;1999.90;999.90;;;7.80;99.90;;;;;;5053189;28;20408;-69
2022/09/21 04:16:44;;;;;;;1999.90;999.90;;;7.80;99.90;;;;;;5052923;28;20414;-70
2022/09/21 04:19:10;;;;;;;1999.90;999.90;;;7.80;99.90;;;;;;5053015;28;20402;-69
2022/09/21 04:21:36;;;;;;;1999.90;999.90;;;7.80;99.90;;;;;;5052974;28;20553;-70
2022/09/21 04:24:02;;;;;;;1999.90;999.90;;;7.80;99.90;;;;;;5052920;28;20447;-70
2022/09/21 04:26:31;;;;;;;1999.90;999.90;;;7.80;99.90;;;;;;5052872;28;20168;-70
2022/09/21 04:28:58;;;;;;;1999.90;999.90;;;7.80;99.90;;;;;;5052711;28;20820;-70
2022/09/21 04:31:24;;;;;;;1999.90;999.90;;;7.80;99.90;;;;;;5052861;28;20448;-69
2022/09/21 04:33:52;;;;;;;1999.90;999.90;;;7.80;99.90;;;;;;5052831;28;20399;-69
2022/09/21 04:36:19;;;;;;;1999.90;999.90;;;7.80;99.90;;;;;;5052723;28;20408;-68
2022/09/21 04:38:45;;;;;;;1999.90;999.90;;;7.90;99.90;;;;;;5052578;28;20486;-68
2022/09/21 04:41:11;;;;;;;1999.90;999.90;;;7.90;99.90;;;;;;5052421;28;20449;-68
2022/09/21 04:43:36;;;;;;;1999.90;999.90;;;7.90;99.90;;;;;;5052507;28;20958;-69
2022/09/21 04:46:07;;;;;;;1999.90;999.90;;;7.80;99.90;;;;;;5052553;28;20398;-69
2022/09/21 04:48:33;;;;;;;1999.90;999.90;;;7.80;99.90;;;;;;5052355;28;20167;-70
2022/09/21 04:50:58;;;;;;;1999.90;999.90;;;7.80;99.90;;;;;;5052445;28;20938;-70
2022/09/21 04:53:24;;;;;;;1999.90;999.90;;;7.70;99.90;;;;;;5052461;28;20259;-69
2022/09/21 04:55:50;;;;;;;1999.90;999.90;;;7.70;99.90;;;;;;5052376;28;20672;-69
2022/09/21 04:58:15;;;;;;;1999.90;999.90;;;7.70;99.90;;;;;;5052186;28;20164;-69
2022/09/21 05:00:41;;;;;;;1999.90;999.90;;;7.70;99.90;;;;;;5052131;28;20657;-69
2022/09/21 05:03:06;;;;;;;1999.90;999.90;;;7.70;99.90;;;;;;5052126;28;20283;-69
2022/09/21 05:05:32;;;;;;;1999.90;999.90;;;7.70;99.90;;;;;;5052240;28;20586;-69
2022/09/21 05:07:58;;;;;;;1999.90;999.90;;;7.80;99.90;;;;;;5051911;28;20165;-69
2022/09/21 05:10:24;;;;;;;1999.90;999.90;;;7.80;99.90;;;;;;5052189;28;20206;-70
2022/09/21 05:12:51;;;;;;;1999.90;999.90;;;7.80;99.90;;;;;;5052194;28;20171;-69
2022/09/21 05:15:17;;;;;;;1999.90;999.90;;;7.70;99.90;;;;;;5052140;28;20823;-69
2022/09/21 05:17:43;;;;;;;1999.90;999.90;;;7.60;99.90;;;;;;5051835;28;20414;-69
2022/09/21 05:20:10;;;;;;;1999.90;999.90;;;7.70;99.90;;;;;;5051947;28;20405;-69
2022/09/21 05:22:36;;;;;;;1999.90;999.90;;;7.70;99.90;;;;;;5052033;28;20257;-69
2022/09/21 05:25:02;;;;;;;1999.90;999.90;;;7.70;99.90;;;;;;5051969;28;20967;-68
2022/09/21 05:27:27;;;;;;;1999.90;999.90;;;7.70;99.90;;;;;;5051677;28;20530;-69
2022/09/21 05:29:53;;;;;;;1999.90;999.90;;;7.70;99.90;;;;;;5051481;28;20414;-69
2022/09/21 05:32:24;;;;;;;1999.90;999.90;;;7.70;99.90;;;;;;5051729;28;20652;-69
2022/09/21 05:35:14;;;;;;;1999.90;999.90;;;7.60;99.90;;;;;;5051945;28;20403;-69
2022/09/21 05:37:58;;;;;;;1999.90;999.90;;;7.60;99.90;;;;;;5051531;28;20395;-68
2022/09/21 05:40:24;;;;;;;1999.90;999.90;;;7.60;99.90;;;;;;5051710;28;20409;-68
2022/09/21 05:42:50;;;;;;;1999.90;999.90;;;7.60;99.90;;;;;;5051809;28;20450;-69
2022/09/21 05:45:17;;;;;;;1999.90;999.90;;;7.60;99.90;;;;;;5051811;28;20400;-69
2022/09/21 05:47:52;;;;;;;1999.90;999.90;;;7.70;99.90;;;;;;5051547;28;20399;-69
2022/09/21 05:50:36;;;;;;;1999.90;999.90;;;7.70;99.90;;;;;;5051583;28;20946;-69
2022/09/21 05:53:05;;;;;;;1999.90;999.90;;;7.80;99.90;;;;;;5051653;28;20737;-69
2022/09/21 05:55:57;;;;;;;1999.90;999.90;;;7.80;99.90;;;;;;5051715;28;20498;-69
2022/09/21 05:58:41;;;;;;;1999.90;999.90;;;7.90;99.90;;;;;;5051528;28;20406;-69
2022/09/21 06:01:18;;;;;;;1999.90;999.90;;;7.90;99.90;;;;;;5051820;28;20422;-69
2022/09/21 06:03:44;;;;;;;1999.90;999.90;;;7.90;99.90;;;;;;5051608;28;21020;-69
2022/09/21 06:06:09;;;;;;;1999.90;999.90;;;7.90;99.90;;;;;;5051590;28;20398;-69
2022/09/21 06:08:35;;;;;;;1999.90;999.90;;;8.00;99.90;;;;;;5051475;28;20402;-68
2022/09/21 06:11:01;;;;;;;1999.90;999.90;;;8.00;99.90;;;;;;5051484;28;20661;-68
2022/09/21 06:13:26;;;;;;;1999.90;999.90;;;8.10;99.90;;;;;;5051723;28;20176;-69
2022/09/21 06:15:52;;;;;;;1999.90;999.90;;;8.20;99.90;;;;;;5051408;28;20180;-69
2022/09/21 06:18:18;;;;;;;1999.90;999.90;;;8.30;99.90;;;;;;5051617;28;20194;-69
2022/09/21 06:20:44;;;;;;;1999.90;999.90;;;8.20;99.90;;;;;;5051406;28;20430;-69
2022/09/21 06:23:11;;;;;;;1999.90;999.90;;;8.30;99.90;;;;;;5051297;28;20197;-68
2022/09/21 06:25:37;;;;;;;1999.90;999.90;;;8.40;99.90;;;;;;5051292;28;20459;-69
2022/09/21 06:28:05;;;;;;;1999.90;999.90;;;8.40;99.90;;;;;;5051227;28;20883;-69
2022/09/21 06:30:33;;;;;;;1999.90;999.90;;;8.40;99.90;;;;;;5051317;28;20791;-69
2022/09/21 06:33:03;;;;;;;1999.90;999.90;;;8.40;99.90;;;;;;5051416;28;20477;-68
2022/09/21 06:35:29;;;;;;;1999.90;999.90;;;8.50;99.90;;;;;;5051316;28;20547;-69
2022/09/21 06:37:59;;;;;;;1999.90;999.90;;;8.60;99.90;;;;;;5051005;28;20872;-68
2022/09/21 06:40:27;;;;;;;1999.90;999.90;;;8.70;99.90;;;;;;5051099;28;20831;-69
2022/09/21 06:42:59;;;;;;;1999.90;999.90;;;8.70;99.90;;;;;;5053250;28;20961;-70
2022/09/21 06:45:27;;;;;;;1999.90;999.90;;;8.80;99.90;;;;;;5055027;28;20403;-69
2022/09/21 06:47:52;;;;;;;1999.90;999.90;;;9.00;99.90;;;;;;5054549;28;20503;-68
2022/09/21 06:50:18;;;;;;;1999.90;999.90;;;9.00;99.90;;;;;;5054703;28;20408;-69
2022/09/21 06:52:44;;;;;;;1999.90;999.90;;;9.10;99.90;;;;;;5054688;28;20543;-70
2022/09/21 06:55:10;;;;;;;1999.90;999.90;;;9.20;99.90;;;;;;5054780;28;20405;-70
2022/09/21 06:57:39;;;;;;;1999.90;999.90;;;9.30;99.90;;;;;;5054354;28;20411;-69
2022/09/21 07:00:07;;;;;;;1999.90;999.90;;;9.40;99.90;;;;;;5054522;28;20401;-68
2022/09/21 07:02:32;;;;;;;1999.90;999.90;;;9.50;99.90;;;;;;5054496;28;20502;-68
2022/09/21 07:04:58;;;;;;;1999.90;999.90;;;9.60;99.90;;;;;;5054438;28;20846;-68
2022/09/21 07:07:24;;;;;;;1999.90;999.90;;;9.60;99.90;;;;;;5054003;28;20198;-68
2022/09/21 07:09:50;;;;;;;1999.90;999.90;;;9.70;99.90;;;;;;5054718;28;20581;-69
2022/09/21 07:12:17;;;;;;;1999.90;999.90;;;9.70;99.90;;;;;;5054295;28;20424;-68
2022/09/21 07:14:45;;;;;;;1999.90;999.90;;;9.80;99.90;;;;;;5054362;28;20779;-68
2022/09/21 07:17:12;;;;;;;1999.90;999.90;;;9.80;99.90;;;;;;5053930;28;20901;-68
2022/09/21 07:19:37;;;;;;;1999.90;999.90;;;9.90;99.90;;;;;;5054241;28;20408;-69
2022/09/21 07:22:03;;;;;;;1999.90;999.90;;;10.00;99.90;;;;;;5054089;28;20434;-69
2022/09/21 07:24:29;;;;;;;1999.90;999.90;;;10.00;99.90;;;;;;5053964;28;20499;-69
2022/09/21 07:26:54;;;;;;;1999.90;999.90;;;10.00;99.90;;;;;;5053828;28;20631;-69
2022/09/21 07:29:20;;;;;;;1999.90;999.90;;;10.00;99.90;;;;;;5054081;28;20694;-69
2022/09/21 07:31:46;;;;;;;1999.90;999.90;;;10.10;99.90;;;;;;5053990;28;20191;-70
2022/09/21 07:34:12;;;;;;;1999.90;999.90;;;10.10;99.90;;;;;;5053958;28;20177;-69
2022/09/21 07:36:38;;;;;;;1999.90;999.90;;;10.20;99.90;;;;;;5053618;28;20420;-70
2022/09/21 07:39:04;;;;;;;1999.90;999.90;;;10.30;99.90;;;;;;5053949;28;20416;-69
2022/09/21 07:41:29;;;;;;;1999.90;999.90;;;10.40;99.90;;;;;;5053705;28;20206;-68
2022/09/21 07:43:55;;;;;;;1999.90;999.90;;;10.50;99.90;;;;;;5053765;28;20228;-69
2022/09/21 07:46:20;;;;;;;1999.90;999.90;;;10.50;99.90;;;;;;5053715;28;20162;-69
2022/09/21 07:48:46;;;;;;;1999.90;999.90;;;10.60;99.90;;;;;;5053567;28;20636;-70
2022/09/21 07:51:14;;;;;;;1999.90;999.90;;;10.70;99.90;;;;;;5053448;28;20194;-69
2022/09/21 07:53:43;;;;;;;1999.90;999.90;;;10.80;99.90;;;;;;5053257;28;20262;-69
2022/09/21 07:56:11;;;;;;;1999.90;999.90;;;10.80;99.90;;;;;;5053521;28;20944;-69
2022/09/21 08:01:23;;;;;;;1999.90;999.90;;;11.00;99.90;;;;;;5053699;28;20853;-68
2022/09/21 08:03:53;;;;;;;1999.90;999.90;;;11.10;99.90;;;;;;5053463;28;20510;-69
2022/09/21 08:06:20;;;;;;;1999.90;999.90;;;11.20;99.90;;;;;;5053421;28;20512;-70
2022/09/21 08:08:47;;;;;;;1999.90;999.90;;;11.30;99.90;;;;;;5053175;28;20405;-70
2022/09/21 08:11:14;;;;;;;1999.90;999.90;;;11.40;99.90;;;;;;5053261;28;20423;-68
2022/09/21 08:13:40;;;;;;;1999.90;999.90;;;11.50;99.90;;;;;;5053287;28;20405;-70
2022/09/21 08:16:06;;;;;;;1999.90;999.90;;;11.60;99.90;;;;;;5040800;28;20433;-67
2022/09/21 08:18:36;;;;;;;1999.90;999.90;;;11.70;99.90;;;;;;5031418;28;20183;-68
2022/09/21 08:21:01;;;;;;;1999.90;999.90;;;11.70;99.90;;;;;;5032836;28;20520;-68
2022/09/21 08:23:29;;;;;;;1999.90;999.90;;;11.80;99.90;;;;;;5032248;28;20498;-68
2022/09/21 08:26:02;;;;;;;1999.90;999.90;;;11.90;99.90;;;;;;5032409;28;20164;-68
2022/09/21 08:28:32;;;;;;;1999.90;999.90;;;12.00;99.90;;;;;;5031859;28;20493;-68
2022/09/21 08:30:59;;;;;;;1999.90;999.90;;;12.10;99.90;;;;;;5032365;28;20623;-68
2022/09/21 08:33:26;;;;;;;1999.90;999.90;;;12.20;99.90;;;;;;5031914;28;20412;-69
2022/09/21 08:35:53;;;;;;;1999.90;999.90;;;12.40;99.90;;;;;;5032228;28;20407;-69
2022/09/21 08:38:19;;;;;;;1999.90;999.90;;;12.50;99.90;;;;;;5031491;28;20407;-68
2022/09/21 08:40:45;;;;;;;1999.90;999.90;;;12.50;99.90;;;;;;5032131;28;20501;-67
2022/09/21 08:43:15;;;;;;;1999.90;999.90;;;12.60;99.90;;;;;;5032256;28;20455;-68
2022/09/21 08:45:43;;;;;;;1999.90;999.90;;;12.60;99.90;;;;;;5029149;28;20209;-68
2022/09/21 08:48:20;;;;;;;1999.90;999.90;;;12.70;99.90;;;;;;5030713;28;20422;-69
2022/09/21 08:50:53;;;;;;;1999.90;999.90;;;12.80;99.90;;;;;;5031667;28;20426;-69
2022/09/21 08:53:25;;;;;;;1999.90;999.90;;;12.80;99.90;;;;;;5031980;28;20776;-69
2022/09/21 08:55:54;;;;;;;1999.90;999.90;;;13.00;99.90;;;;;;5047683;28;20422;-69
2022/09/21 08:58:25;;;;;;;1999.90;999.90;;;13.10;99.90;;;;;;5051512;28;20434;-67
2022/09/21 09:01:19;;;;;;;1999.90;999.90;;;13.20;99.90;;;;;;5051527;28;20842;-68
2022/09/21 09:03:53;;;;;;;1999.90;999.90;;;13.30;99.90;;;;;;5050730;28;20867;-68
2022/09/21 09:06:49;;;;;;;1999.90;999.90;;;13.40;99.90;;;;;;5051353;28;20390;-69
2022/09/21 09:09:20;;;;;;;1999.90;999.90;;;13.40;99.90;;;;;;5051419;28;20394;-69
2022/09/21 09:12:28;;;;;;;1999.90;999.90;;;13.50;99.90;;;;;;5051813;28;20420;-68
2022/09/21 09:15:09;;;;;;;1999.90;999.90;;;13.60;99.90;;;;;;5051686;28;20468;-68
2022/09/21 09:17:50;;;;;;;1999.90;999.90;;;13.70;99.90;;;;;;5050887;28;20400;-68
2022/09/21 09:20:19;;;;;;;1999.90;999.90;;;13.90;99.90;;;;;;5051320;28;20399;-68
2022/09/21 09:23:08;;;;;;;1999.90;999.90;;;14.00;99.90;;;;;;5050997;28;20463;-70
2022/09/21 09:25:38;;;;;;;1999.90;999.90;;;14.10;99.90;;;;;;5051479;28;20434;-70
2022/09/21 09:28:32;;;;;;;1999.90;999.90;;;14.20;99.90;;;;;;5050806;28;20495;-68
2022/09/21 09:31:09;;;;;;;1999.90;999.90;;;14.30;99.90;;;;;;5051072;28;20426;-69
2022/09/21 09:33:54;;;;;;;1999.90;999.90;;;14.40;99.90;;;;;;5051531;28;20412;-69
2022/09/21 09:36:23;;;;;;;1999.90;999.90;;;14.60;99.90;;;;;;5051338;28;20741;-69
2022/09/21 09:38:57;;;;;;;1999.90;999.90;;;14.60;99.90;;;;;;5050623;28;20492;-68
2022/09/21 09:41:34;;;;;;;1999.90;999.90;;;14.70;99.90;;;;;;5051189;28;20448;-68
2022/09/21 09:44:37;;;;;;;1999.90;999.90;;;14.90;99.90;;;;;;5089188;22;20863;-68
2022/09/21 09:47:03;;;;;;;1999.90;999.90;;;15.00;99.90;;;;;;5051373;28;20463;-69
2022/09/21 09:49:51;;;;;;;1999.90;999.90;;;15.10;99.90;;;;;;5051415;28;20541;-68
2022/09/21 09:52:17;;;;;;;1999.90;999.90;;;15.30;99.90;;;;;;5051051;28;20175;-68
2022/09/21 09:54:43;;;;;;;1999.90;999.90;;;15.30;99.90;;;;;;5051282;28;20919;-67
2022/09/21 09:57:09;;;;;;;1999.90;999.90;;;15.30;99.90;;;;;;5050700;28;20586;-70
2022/09/21 09:59:54;;;;;;;1999.90;999.90;;;15.40;99.90;;;;;;5050897;28;20489;-70
2022/09/21 10:02:27;;;;;;;1999.90;999.90;;;15.60;99.90;;;;;;5051147;28;20411;-69
2022/09/21 10:05:05;;;;;;;1999.90;999.90;;;15.80;99.90;;;;;;5051200;28;20457;-70
2022/09/21 10:07:39;;;;;;;1999.90;999.90;;;15.90;99.90;;;;;;5050193;28;20492;-70
2022/09/21 10:10:28;;;;;;;1999.90;999.90;;;16.10;99.90;;;;;;5051253;28;20796;-70
2022/09/21 10:12:56;;;;;;;1999.90;999.90;;;16.20;99.90;;;;;;5051571;28;20499;-70
2022/09/21 10:15:23;;;;;;;1999.90;999.90;;;16.30;99.90;;;;;;5050837;28;20411;-70
2022/09/21 10:18:12;;;;;;;1999.90;999.90;;;16.50;99.90;;;;;;5053969;28;20987;-70
2022/09/21 10:20:38;;;;;;;1999.90;999.90;;;16.60;99.90;;;;;;5055057;28;20405;-69
2022/09/21 10:23:04;;;;;;;1999.90;999.90;;;16.70;99.90;;;;;;5054217;28;20453;-69
2022/09/21 10:25:30;;;;;;;1999.90;999.90;;;16.80;99.90;;;;;;5054837;28;20485;-69
2022/09/21 10:27:56;;;;;;;1999.90;999.90;;;16.90;99.90;;;;;;5054142;28;20405;-70
2022/09/21 10:30:34;;;;;;;1999.90;999.90;;;16.90;99.90;;;;;;5054383;28;20163;-70
2022/09/21 10:33:01;;;;;;;1999.90;999.90;;;17.10;99.90;;;;;;5054632;28;20467;-68
2022/09/21 10:35:27;;;;;;;1999.90;999.90;;;17.30;99.90;;;;;;5054625;28;20410;-70
2022/09/21 10:38:19;;;;;;;1999.90;999.90;;;17.40;99.90;;;;;;5053329;28;20420;-69
2022/09/21 10:40:45;;;;;;;1999.90;999.90;;;17.50;99.90;;;;;;5054631;28;20494;-70
2022/09/21 10:43:30;;;;;;;1999.90;999.90;;;17.60;99.90;;;;;;5054395;28;20468;-70
2022/09/21 10:45:56;;;;;;;1999.90;999.90;;;17.80;99.90;;;;;;5053881;28;20395;-70
2022/09/21 10:48:25;;;;;;;1999.90;999.90;;;17.90;99.90;;;;;;5053926;28;20401;-70
2022/09/21 10:50:52;;;;;;;1999.90;999.90;;;18.00;99.90;;;;;;5054783;28;20410;-70
2022/09/21 10:53:31;;;;;;;1999.90;999.90;;;17.80;99.90;;;;;;5053958;28;20516;-70
2022/09/21 10:56:11;;;;;;;1999.90;999.90;;;17.60;99.90;;;;;;5054306;28;20701;-70
2022/09/21 10:58:38;;;;;;;1999.90;999.90;;;17.50;99.90;;;;;;5053311;28;20959;-70
2022/09/21 11:01:30;;;;;;;1999.90;999.90;;;17.40;99.90;;;;;;5054230;28;20446;-69
2022/09/21 11:04:06;;;;;;;1999.90;999.90;;;17.30;99.90;;;;;;5051147;28;20476;-70
2022/09/21 11:06:41;;;;;;;1999.90;999.90;;;17.20;99.90;;;;;;5053339;28;20436;-69
2022/09/21 11:09:15;;;;;;;1999.90;999.90;;;17.30;99.90;;;;;;5053878;28;20465;-70
2022/09/21 11:12:03;;;;;;;1999.90;999.90;;;17.60;99.90;;;;;;5054018;28;20420;-70
2022/09/21 11:15:06;;;;;;;1999.90;999.90;;;17.90;99.90;;;;;;5054381;28;20934;-68
2022/09/21 11:17:48;;;;;;;1999.90;999.90;;;18.30;99.90;;;;;;5053645;28;20408;-68
2022/09/21 11:20:37;;;;;;;1999.90;999.90;;;18.70;99.90;;;;;;5054645;28;20887;-69
2022/09/21 11:23:35;;;;;;;1999.90;999.90;;;18.90;99.90;;;;;;5053695;28;20449;-68
2022/09/21 11:26:26;;;;;;;1999.90;999.90;;;18.80;99.90;;;;;;5029405;28;20449;-68
2022/09/21 11:29:35;;;;;;;1999.90;999.90;;;18.80;99.90;;;;;;5052467;28;20471;-68
2022/09/21 11:32:12;;;;;;;1999.90;999.90;;;18.70;99.90;;;;;;4992410;28;20415;-68
2022/09/21 11:34:52;;;;;;;1999.90;999.90;;;18.70;99.90;;;;;;4992442;28;20838;-70
2022/09/21 11:37:39;;;;;;;1999.90;999.90;;;18.90;99.90;;;;;;5032280;28;20417;-69
2022/09/21 11:40:16;;;;;;;1999.90;999.90;;;18.90;99.90;;;;;;5053569;28;20449;-70
2022/09/21 11:42:47;;;;;;;1999.90;999.90;;;18.90;99.90;;;;;;5053395;28;20421;-69
2022/09/21 11:45:25;;;;;;;1999.90;999.90;;;19.10;99.90;;;;;;5053065;28;20937;-70
2022/09/21 11:48:16;;;;;;;1999.90;999.90;;;19.30;99.90;;;;;;5052821;28;20750;-70
2022/09/21 11:51:37;;;;;;;1999.90;999.90;;;19.60;99.90;;;;;;5052807;28;20982;-70
2022/09/21 11:54:19;;;;;;;1999.90;999.90;;;20.90;99.90;;;;;;4991471;28;20572;-70
2022/09/21 11:56:54;;;;;;;1999.90;999.90;;;22.30;99.90;;;;;;4990905;28;20436;-70
2022/09/21 11:59:27;;;;;;;1999.90;999.90;;;23.30;97.80;;;;;;5038382;28;20913;-70
2022/09/21 12:02:00;;;;;;;1999.90;999.90;;;24.30;85.30;;;;;;5053358;28;20432;-70
2022/09/21 12:04:53;;;;;;;1999.90;999.90;;;25.60;77.80;;;;;;5053049;28;20431;-70
2022/09/21 12:07:31;;;;;;;1999.90;999.90;;;26.60;54.10;;;;;;5051826;28;20406;-71
2022/09/21 12:10:09;;;;;;;1999.90;999.90;;;27.30;42.90;;;;;;5053185;28;20410;-70
2022/09/21 12:12:38;;;;;;;1999.90;999.90;;;27.90;37.90;;;;;;5052575;28;20903;-68
2022/09/21 12:15:27;;;;;;;1999.90;999.90;;;28.30;29.10;;;;;;5052858;28;20414;-71
2022/09/21 12:18:11;;;;;;;1999.90;999.90;;;28.80;27.90;;;;;;5052089;28;20409;-70
2022/09/21 12:20:46;;;;;;;1999.90;999.90;;;29.30;24.20;;;;;;5052396;28;20402;-70
2022/09/21 12:23:20;;;;;;;1999.90;999.90;;;29.20;23.30;;;;;;5052692;28;20851;-70
2022/09/21 12:25:50;;;;;;;1999.90;999.90;;;29.80;20.00;;;;;;5052786;28;20900;-71
2022/09/21 12:28:23;;;;;;;1999.90;999.90;;;30.20;19.60;;;;;;5051698;28;20402;-70
2022/09/21 12:30:54;;;;;;;1999.90;999.90;;;30.00;17.00;;;;;;5052016;28;20398;-69